Time;durP1;ratioP1;P1;durP2;ratioP2;P2;SDS_P1;SDS_P2;PMS_P1;PMS_P2;Temp;Humidity;BMP_temperature;BMP_pressure;BME280_temperature;BME280_humidity;BME280_pressure;Samples;Min_cycle;Max_cycle;Signal;HPM_P1;HPM_P2
2021/12/28 00:00:58;;;;;;;17.55;12.25;;;;;;;-144.19;100.00;76256.41;5076419;28;20052;-86
2021/12/28 00:03:24;;;;;;;16.25;12.43;;;;;;;-144.19;100.00;76264.28;5059277;28;20135;-87
2021/12/28 00:05:51;;;;;;;18.00;12.67;;;;;;;-144.19;100.00;76262.31;5058043;28;20048;-87
2021/12/28 00:08:19;;;;;;;19.13;13.10;;;;;;;-144.19;100.00;76268.22;5059055;28;20576;-89
2021/12/28 00:10:46;;;;;;;19.15;13.70;;;;;;;-144.19;100.00;76256.41;5058087;28;20052;-87
2021/12/28 00:13:15;;;;;;;18.75;13.57;;;;;;;-144.19;100.00;76252.47;5075184;28;20058;-88
2021/12/28 00:18:18;;;;;;;20.63;13.73;;;;;;;-144.19;100.00;76244.59;5076468;28;20052;-87
2021/12/28 00:20:49;;;;;;;18.23;13.63;;;;;;;-144.19;100.00;76248.53;5076648;28;20048;-86
2021/12/28 00:23:19;;;;;;;20.45;13.75;;;;;;;-144.19;100.00;76217.03;5057661;28;20053;-86
2021/12/28 00:25:48;;;;;;;19.90;13.77;;;;;;;-144.19;100.00;76201.31;5075839;28;20050;-87
2021/12/28 00:28:15;;;;;;;20.38;13.75;;;;;;;-144.19;100.00;76185.56;5057807;28;20048;-87
2021/12/28 00:30:42;;;;;;;18.33;13.10;;;;;;;-144.19;100.00;76185.56;5057783;28;20499;-88
2021/12/28 00:33:09;;;;;;;18.75;12.93;;;;;;;-144.19;100.00;76195.41;5057964;28;20051;-87
2021/12/28 00:35:39;;;;;;;20.05;13.45;;;;;;;-144.19;100.00;76175.72;5086053;28;20051;-88
2021/12/28 00:38:08;;;;;;;19.52;13.82;;;;;;;-144.19;100.00;76193.44;5077026;28;20055;-86
2021/12/28 00:40:35;;;;;;;17.73;12.73;;;;;;;-144.19;100.00;76193.44;5067814;28;20071;-89
2021/12/28 00:43:03;;;;;;;19.17;13.63;;;;;;;-144.19;100.00;76197.38;5060057;28;20052;-87
2021/12/28 00:45:30;;;;;;;21.35;13.80;;;;;;;-144.19;100.00;76201.31;5075148;28;20051;-85
2021/12/28 00:47:57;;;;;;;21.90;14.20;;;;;;;-144.19;100.00;76185.56;5057541;28;20044;-85
2021/12/28 00:50:25;;;;;;;21.00;14.63;;;;;;;-144.19;100.00;76177.69;5056996;28;20059;-85
2021/12/28 00:52:54;;;;;;;18.58;13.77;;;;;;;-144.19;100.00;76181.63;5073768;28;20052;-85
2021/12/28 00:55:22;;;;;;;19.35;12.98;;;;;;;-144.19;100.00;76161.94;5056754;28;20041;-88
2021/12/28 00:57:49;;;;;;;19.98;12.40;;;;;;;-144.19;100.00;76156.03;5055932;28;20048;-85
2021/12/28 01:00:19;;;;;;;19.55;13.73;;;;;;;-144.19;100.00;76132.41;5056599;28;20048;-86
2021/12/28 01:02:46;;;;;;;21.23;14.38;;;;;;;-144.19;100.00;76146.19;5072136;28;20049;-85
2021/12/28 01:05:13;;;;;;;20.55;14.27;;;;;;;-144.19;100.00;76130.44;5056374;28;20517;-86
2021/12/28 01:07:40;;;;;;;18.33;12.98;;;;;;;-144.19;100.00;76124.53;5073158;28;20048;-84
2021/12/28 01:10:10;;;;;;;19.58;13.93;;;;;;;-144.19;100.00;76152.09;5056018;28;20049;-86
2021/12/28 01:12:37;;;;;;;21.65;13.95;;;;;;;-144.19;100.00;76126.50;5056306;28;20056;-86
2021/12/28 01:15:08;;;;;;;22.38;14.25;;;;;;;-144.19;100.00;76138.31;5056387;28;20403;-86
2021/12/28 01:17:36;;;;;;;20.33;13.13;;;;;;;-144.19;100.00;76144.22;5056017;28;20060;-86
2021/12/28 01:20:06;;;;;;;19.55;14.02;;;;;;;-144.19;100.00;76110.75;5055710;28;20044;-85
2021/12/28 01:22:33;;;;;;;19.00;13.07;;;;;;;-144.19;100.00;76132.41;5055807;28;20048;-86
2021/12/28 01:24:59;;;;;;;22.13;13.98;;;;;;;-144.19;100.00;76108.78;5073674;28;20048;-87
2021/12/28 01:27:26;;;;;;;21.37;13.50;;;;;;;-144.19;100.00;76132.41;5056222;28;20059;-86
2021/12/28 01:29:52;;;;;;;21.60;13.68;;;;;;;-144.19;100.00;76134.38;5055377;28;20336;-87
2021/12/28 01:32:19;;;;;;;22.70;14.70;;;;;;;-144.19;100.00;76106.81;5055609;28;20048;-84
2021/12/28 01:34:45;;;;;;;22.48;13.63;;;;;;;-144.19;100.00;76122.56;5055352;28;20425;-87
2021/12/28 01:37:12;;;;;;;21.40;13.63;;;;;;;-144.19;100.00;76116.66;5055721;28;20041;-87
2021/12/28 01:39:39;;;;;;;22.77;14.77;;;;;;;-144.19;100.00;76110.75;5058455;28;20044;-86
2021/12/28 01:42:07;;;;;;;22.92;13.43;;;;;;;-144.19;100.00;76102.91;5062153;28;20053;-87
2021/12/28 01:44:36;;;;;;;22.50;14.23;;;;;;;-144.19;100.00;76100.94;5054492;28;20052;-86
2021/12/28 01:47:04;;;;;;;20.05;13.80;;;;;;;-144.19;100.00;76097.00;5072805;28;20056;-87
2021/12/28 01:49:30;;;;;;;;;;;;;;;-144.19;100.00;76122.56;5055015;28;20053;-86
2021/12/28 01:51:57;;;;;;;20.65;13.57;;;;;;;-144.19;100.00;76108.78;5054521;28;19920;-88
2021/12/28 01:54:24;;;;;;;20.48;13.35;;;;;;;-144.19;100.00;76124.53;5054988;28;20199;-87
2021/12/28 01:56:51;;;;;;;20.45;12.77;;;;;;;-144.19;100.00;76112.72;5054587;28;20066;-88
2021/12/28 01:59:20;;;;;;;21.02;14.00;;;;;;;-144.19;100.00;76102.91;5054124;28;20059;-85
2021/12/28 02:01:48;;;;;;;19.33;13.77;;;;;;;-144.19;100.00;76095.03;5054365;28;20090;-85
2021/12/28 02:04:25;;;;;;;20.00;13.13;;;;;;;-144.19;100.00;76102.91;5054189;28;20087;-87
2021/12/28 02:06:55;;;;;;;21.25;14.18;;;;;;;-144.19;100.00;76102.91;5054440;28;20604;-87
2021/12/28 02:09:21;;;;;;;21.25;13.75;;;;;;;-144.19;100.00;76102.91;5071836;28;20055;-90
2021/12/28 02:11:48;;;;;;;17.85;13.52;;;;;;;-144.19;100.00;76112.72;5054064;28;20055;-83
2021/12/28 02:14:14;;;;;;;21.40;13.50;;;;;;;-144.19;100.00;76091.09;5053659;28;20055;-87
2021/12/28 02:16:43;;;;;;;23.10;14.17;;;;;;;-144.19;100.00;76085.19;5054304;28;20045;-88
2021/12/28 02:19:12;;;;;;;22.33;13.90;;;;;;;-144.19;100.00;76091.09;5054314;28;20378;-84
2021/12/28 02:21:40;;;;;;;19.40;13.73;;;;;;;-144.19;100.00;76098.97;5054799;28;20053;-86
2021/12/28 02:24:08;;;;;;;23.73;14.75;;;;;;;-144.19;100.00;76079.28;5054892;28;20403;-86
2021/12/28 02:26:35;;;;;;;20.33;13.60;;;;;;;-144.19;100.00;76098.97;5056584;28;20047;-85
2021/12/28 02:29:03;;;;;;;20.80;14.48;;;;;;;-144.19;100.00;76100.94;5074264;28;20536;-88
2021/12/28 02:31:30;;;;;;;19.45;12.30;;;;;;;-144.19;100.00;76120.59;5055864;28;20048;-88
2021/12/28 02:33:57;;;;;;;19.95;13.32;;;;;;;-144.19;100.00;76102.91;5072878;28;20142;-87
2021/12/28 02:36:23;;;;;;;20.00;13.30;;;;;;;-144.19;100.00;76098.97;5072088;28;20050;-85
2021/12/28 02:38:50;;;;;;;16.67;12.37;;;;;;;-144.19;100.00;76112.72;5076605;28;20517;-87
2021/12/28 02:41:16;;;;;;;18.27;12.73;;;;;;;-144.19;100.00;76116.66;5067628;28;20044;-85
2021/12/28 02:43:48;;;;;;;17.27;12.00;;;;;;;-144.19;100.00;76126.50;5077905;28;20055;-85
2021/12/28 02:46:16;;;;;;;21.70;12.63;;;;;;;-144.19;100.00;76142.25;5059015;28;20309;-85
2021/12/28 02:48:43;;;;;;;17.58;11.38;;;;;;;-144.19;100.00;76146.19;5076274;28;20139;-87
2021/12/28 02:51:16;;;;;;;17.60;12.45;;;;;;;-144.19;100.00;76136.34;5058443;28;20055;-86
2021/12/28 02:53:44;;;;;;;16.75;11.77;;;;;;;-144.19;100.00;76146.19;5058091;28;20052;-90
2021/12/28 02:56:12;;;;;;;19.02;13.10;;;;;;;-144.19;100.00;76134.38;5058848;28;20047;-86
2021/12/28 02:58:43;;;;;;;16.20;11.43;;;;;;;-144.19;100.00;76146.19;5057911;28;20541;-87
2021/12/28 03:01:14;;;;;;;15.65;10.02;;;;;;;-144.19;100.00;76150.13;5058065;28;20048;-85
2021/12/28 03:03:43;;;;;;;16.67;11.43;;;;;;;-144.19;100.00;76154.06;5057931;28;20466;-86
2021/12/28 03:06:12;;;;;;;19.95;11.50;;;;;;;-144.19;100.00;76150.13;5058122;28;20052;-86
2021/12/28 03:08:43;;;;;;;16.52;11.48;;;;;;;-144.19;100.00;76144.22;5075351;28;20056;-87
2021/12/28 03:11:11;;;;;;;14.65;9.85;;;;;;;-144.19;100.00;76154.06;5075935;28;20442;-86
2021/12/28 03:13:41;;;;;;;14.43;10.15;;;;;;;-144.19;100.00;76167.84;5057827;28;20057;-86
2021/12/28 03:16:09;;;;;;;14.88;9.57;;;;;;;-144.19;100.00;76167.84;5075758;28;20573;-88
2021/12/28 03:18:36;;;;;;;13.93;10.02;;;;;;;-144.19;100.00;76165.88;5056972;28;20573;-87
2021/12/28 03:21:05;;;;;;;21.58;12.00;;;;;;;-144.19;100.00;76138.31;5057301;28;20048;-85
2021/12/28 03:23:32;;;;;;;13.55;9.70;;;;;;;-144.19;100.00;76154.06;5057096;28;20052;-87
2021/12/28 03:25:59;;;;;;;15.63;10.93;;;;;;;-144.19;100.00;76128.47;5057823;28;20071;-87
2021/12/28 03:28:31;;;;;;;15.48;10.65;;;;;;;-144.19;100.00;76154.06;5057886;28;20052;-90
2021/12/28 03:31:03;;;;;;;13.75;9.55;;;;;;;-144.19;100.00;76150.13;5058122;28;20052;-86
2021/12/28 03:33:32;;;;;;;13.15;9.07;;;;;;;-144.19;100.00;76148.16;5074209;28;20058;-87
2021/12/28 03:35:59;;;;;;;12.57;9.05;;;;;;;-144.19;100.00;76148.16;5071105;28;20569;-85
2021/12/28 03:38:25;;;;;;;15.05;8.98;;;;;;;-144.19;100.00;76144.22;5078176;28;20055;-87
2021/12/28 03:40:53;;;;;;;14.13;8.70;;;;;;;-144.19;100.00;76148.16;5065044;28;20041;-88
2021/12/28 03:43:20;;;;;;;14.00;8.90;;;;;;;-144.19;100.00;76150.13;5060617;28;20055;-88
2021/12/28 03:45:47;;;;;;;;;;;;;;;-144.19;100.00;76098.97;5075613;28;20422;-86
2021/12/28 03:48:15;;;;;;;13.90;8.37;;;;;;;-144.19;100.00;76102.91;5056575;28;19924;-86
2021/12/28 03:50:42;;;;;;;;;;;;;;;-144.19;100.00;76118.63;5075555;28;20052;-88
2021/12/28 03:53:09;;;;;;;13.05;8.23;;;;;;;-144.19;100.00;76134.38;5057234;28;19920;-88
2021/12/28 03:55:36;;;;;;;15.93;10.07;;;;;;;-144.19;100.00;76093.06;5074487;28;20063;-87
2021/12/28 03:58:03;;;;;;;;;;;;;;;-144.19;100.00;76085.19;5075390;28;20513;-85
2021/12/28 04:00:33;;;;;;;11.15;8.13;;;;;;;-144.19;100.00;76091.09;5057277;28;19927;-85
2021/12/28 04:03:00;;;;;;;11.55;7.60;;;;;;;-144.19;100.00;76075.34;5057243;28;20079;-87
2021/12/28 04:05:26;;;;;;;12.80;8.30;;;;;;;-144.19;100.00;76069.44;5057143;28;20052;-87
2021/12/28 04:07:53;;;;;;;12.73;8.57;;;;;;;-144.19;100.00;76067.47;5056708;28;20450;-87
2021/12/28 04:10:28;;;;;;;13.13;8.32;;;;;;;-144.19;100.00;76043.84;5073100;28;20299;-84
2021/12/28 04:12:55;;;;;;;13.30;8.10;;;;;;;-144.19;100.00;76053.69;5047429;28;20049;-86
2021/12/28 04:15:22;;;;;;;13.10;7.40;;;;;;;-144.19;100.00;76047.78;5047454;28;20052;-86
2021/12/28 04:17:48;;;;;;;11.40;7.13;;;;;;;-144.19;100.00;76026.13;5045507;28;20503;-86
2021/12/28 04:20:18;;;;;;;13.48;7.70;;;;;;;-144.19;100.00;76008.41;5061186;28;20057;-88
2021/12/28 04:22:44;;;;;;;12.15;7.70;;;;;;;-144.19;100.00;75986.78;5061601;28;20427;-86
2021/12/28 04:25:14;;;;;;;9.97;7.27;;;;;;;-144.19;100.00;76002.50;5065161;28;20048;-84
2021/12/28 04:27:42;;;;;;;10.32;6.68;;;;;;;-144.19;100.00;76016.28;5075957;28;20293;-87
2021/12/28 04:30:10;;;;;;;;;;;;;;;-144.19;100.00;76004.47;5076991;28;20054;-85
2021/12/28 04:32:37;;;;;;;11.57;6.57;;;;;;;-144.19;100.00;76002.50;5075800;28;20378;-87
2021/12/28 04:35:04;;;;;;;9.82;6.35;;;;;;;-144.19;100.00;76010.38;5088199;28;20498;-89
2021/12/28 04:37:31;;;;;;;11.15;6.70;;;;;;;-144.19;100.00;75988.75;5073972;28;20481;-87
2021/12/28 04:39:58;;;;;;;12.77;6.40;;;;;;;-144.19;100.00;75994.66;5060568;28;20047;-86
2021/12/28 04:42:26;;;;;;;10.43;5.95;;;;;;;-144.19;100.00;76010.38;5068794;28;20058;-87
2021/12/28 04:44:54;;;;;;;10.10;6.22;;;;;;;-144.19;100.00;75996.63;5094839;28;20131;-87
2021/12/28 04:47:20;;;;;;;9.18;6.07;;;;;;;-144.19;100.00;76016.28;5095540;28;20050;-87
2021/12/28 04:49:47;;;;;;;9.03;5.47;;;;;;;-144.19;100.00;76035.97;5094315;28;20430;-86
2021/12/28 04:52:14;;;;;;;11.02;5.88;;;;;;;-144.19;100.00;76035.97;5076372;28;20536;-87
2021/12/28 04:54:41;;;;;;;10.23;6.45;;;;;;;-144.19;100.00;76055.66;5075737;28;20477;-89
2021/12/28 04:57:08;;;;;;;12.25;6.80;;;;;;;-144.19;100.00;76041.88;5056492;28;20495;-89
2021/12/28 04:59:35;;;;;;;12.52;6.68;;;;;;;-144.19;100.00;76047.78;5055658;28;20076;-87
2021/12/28 05:02:02;;;;;;;14.40;6.38;;;;;;;-144.19;100.00;76045.81;5055914;28;20048;-85
2021/12/28 05:04:28;;;;;;;10.13;6.30;;;;;;;-144.19;100.00;76049.75;5073927;28;20059;-87
2021/12/28 05:06:55;;;;;;;10.60;6.07;;;;;;;-144.19;100.00;76051.72;5056369;28;20055;-88
2021/12/28 05:09:22;;;;;;;14.70;6.20;;;;;;;-144.19;100.00;76053.69;5071708;28;20514;-84
2021/12/28 05:11:50;;;;;;;15.13;6.75;;;;;;;-144.19;100.00;76010.38;5073472;28;20055;-84
2021/12/28 05:14:18;;;;;;;10.13;6.07;;;;;;;-144.19;100.00;76024.16;5054746;28;20041;-87
2021/12/28 05:16:45;;;;;;;12.18;5.40;;;;;;;-144.19;100.00;76041.88;5072163;28;20055;-86
2021/12/28 05:19:11;;;;;;;;;;;;;;;-144.19;100.00;76041.88;5055457;28;20060;-84
2021/12/28 05:21:38;;;;;;;13.13;6.15;;;;;;;-144.19;100.00;76035.97;5055483;28;19924;-85
2021/12/28 05:24:05;;;;;;;12.52;6.15;;;;;;;-144.19;100.00;76024.16;5073166;28;20052;-88
2021/12/28 05:26:32;;;;;;;10.52;5.57;;;;;;;-144.19;100.00;76028.09;5071971;28;20051;-83
2021/12/28 05:28:59;;;;;;;13.43;5.93;;;;;;;-144.19;100.00;76024.16;5072123;28;20418;-87
2021/12/28 05:31:27;;;;;;;10.93;5.05;;;;;;;-144.19;100.00;76012.34;5071683;28;20055;-85
2021/12/28 05:33:54;;;;;;;12.48;5.70;;;;;;;-144.19;100.00;76008.41;5054950;28;20430;-87
2021/12/28 05:36:22;;;;;;;18.20;7.03;;;;;;;-144.19;100.00;75969.06;5072106;28;20052;-85
2021/12/28 05:38:49;;;;;;;16.17;5.63;;;;;;;-144.19;100.00;75957.25;5091150;28;20064;-85
2021/12/28 05:41:15;;;;;;;15.50;6.50;;;;;;;-144.19;100.00;75961.19;5063610;28;20053;-87
2021/12/28 05:43:42;;;;;;;11.90;5.57;;;;;;;-144.19;100.00;75971.03;5057077;28;20291;-88
2021/12/28 05:46:08;;;;;;;16.77;5.87;;;;;;;-144.19;100.00;75969.06;5057012;28;20045;-86
2021/12/28 05:48:35;;;;;;;13.70;6.65;;;;;;;-144.19;100.00;75967.09;5087942;28;20122;-88
2021/12/28 05:51:02;;;;;;;15.23;6.80;;;;;;;-144.19;100.00;75973.00;5055765;28;20052;-88
2021/12/28 05:53:28;;;;;;;15.00;6.97;;;;;;;-144.19;100.00;75967.09;5071858;28;20044;-87
2021/12/28 05:55:55;;;;;;;12.50;7.27;;;;;;;-144.19;100.00;75957.25;5063908;28;20048;-89
2021/12/28 05:58:21;;;;;;;15.40;6.93;;;;;;;-144.19;100.00;75967.09;5054620;28;20395;-87
2021/12/28 06:00:48;;;;;;;15.67;7.50;;;;;;;-144.19;100.00;75965.13;5058484;28;20053;-84
2021/12/28 06:03:14;;;;;;;14.25;7.05;;;;;;;-144.19;100.00;75945.44;5055552;28;20049;-85
2021/12/28 06:05:41;;;;;;;14.60;5.47;;;;;;;-144.19;100.00;75957.25;5055441;28;20052;-87
2021/12/28 06:08:07;;;;;;;18.00;7.45;;;;;;;-144.19;100.00;75957.25;5054888;28;20039;-87
2021/12/28 06:10:54;;;;;;;11.60;5.50;;;;;;;-144.19;100.00;75959.22;5072764;28;20052;-85
2021/12/28 06:13:23;;;;;;;13.60;4.70;;;;;;;-144.19;100.00;75921.81;5075986;28;20135;-86
2021/12/28 06:15:50;;;;;;;13.00;5.07;;;;;;;-144.19;100.00;75917.88;5077267;28;20092;-88
2021/12/28 06:18:16;;;;;;;9.07;5.15;;;;;;;-144.19;100.00;75937.56;5077494;28;20132;-84
2021/12/28 06:20:43;;;;;;;12.05;6.10;;;;;;;-144.19;100.00;75925.75;5076888;28;20430;-86
2021/12/28 06:23:10;;;;;;;11.63;4.80;;;;;;;-144.19;100.00;75937.56;5076596;28;20055;-88
2021/12/28 06:25:36;;;;;;;11.63;5.25;;;;;;;-144.19;100.00;75925.75;5058838;28;20049;-89
2021/12/28 06:28:04;;;;;;;12.27;5.70;;;;;;;-144.19;100.00;75939.53;5058682;28;20491;-85
2021/12/28 06:30:31;;;;;;;14.30;4.68;;;;;;;-144.19;100.00;75939.53;5076667;28;20048;-88
2021/12/28 06:32:59;;;;;;;9.60;4.70;;;;;;;-144.19;100.00;75939.53;5058613;28;20063;-86
2021/12/28 06:35:25;;;;;;;;;;;;;;;-144.19;100.00;75947.41;5067954;28;20514;-86
2021/12/28 06:37:52;;;;;;;16.45;5.35;;;;;;;-144.19;100.00;75937.56;5097004;28;19932;-87
2021/12/28 06:40:18;;;;;;;13.00;4.93;;;;;;;-144.19;100.00;75955.28;5095560;28;20044;-87
2021/12/28 06:42:44;;;;;;;13.55;5.35;;;;;;;-144.19;100.00;75961.19;5086273;28;20048;-88
2021/12/28 06:45:11;;;;;;;18.20;6.23;;;;;;;-144.19;100.00;75941.50;5076799;28;20058;-87
2021/12/28 06:47:38;;;;;;;20.23;5.82;;;;;;;-144.19;100.00;75953.31;5078052;28;20048;-88
2021/12/28 06:50:05;;;;;;;11.18;5.65;;;;;;;-144.19;100.00;75953.31;5097130;28;20055;-86
2021/12/28 06:52:33;;;;;;;12.55;5.95;;;;;;;-144.19;100.00;75947.41;5079666;28;20054;-85
2021/12/28 06:55:00;;;;;;;12.13;5.63;;;;;;;-144.19;100.00;75953.31;5095157;28;20049;-86
2021/12/28 06:57:26;;;;;;;13.93;5.85;;;;;;;-144.19;100.00;75945.44;5060702;28;20048;-86
2021/12/28 06:59:52;;;;;;;12.63;4.77;;;;;;;-144.19;100.00;75906.06;5058436;28;20067;-86
2021/12/28 07:02:19;;;;;;;12.05;4.47;;;;;;;-144.19;100.00;75929.69;5058890;28;20052;-87
2021/12/28 07:04:46;;;;;;;12.98;5.60;;;;;;;-144.19;100.00;75921.81;5077526;28;20147;-87
2021/12/28 07:07:12;;;;;;;14.23;5.20;;;;;;;-144.19;100.00;75929.69;5058828;28;20044;-87
2021/12/28 07:09:39;;;;;;;15.70;5.28;;;;;;;-144.19;100.00;75929.69;5075728;28;20052;-86
2021/12/28 07:12:06;;;;;;;12.10;5.22;;;;;;;-144.19;100.00;75925.75;5058121;28;20048;-89
2021/12/28 07:14:33;;;;;;;;;;;;;;;-144.19;100.00;75933.63;5076209;28;20619;-86
2021/12/28 07:17:00;;;;;;;18.65;7.57;;;;;;;-144.19;100.00;75945.44;5055869;28;19932;-84
2021/12/28 07:19:26;;;;;;;15.80;5.70;;;;;;;-144.19;100.00;75933.63;5058178;28;20049;-88
2021/12/28 07:21:53;;;;;;;11.00;4.90;;;;;;;-144.19;100.00;75957.25;5076060;28;20426;-88
2021/12/28 07:24:20;;;;;;;11.95;5.82;;;;;;;-144.19;100.00;75955.28;5074789;28;20127;-85
2021/12/28 07:26:47;;;;;;;13.88;5.65;;;;;;;-144.19;100.00;75955.28;5075300;28;20127;-87
2021/12/28 07:29:13;;;;;;;15.82;5.30;;;;;;;-144.19;100.00;75976.94;5057643;28;20118;-89
2021/12/28 07:31:41;;;;;;;11.82;5.47;;;;;;;-144.19;100.00;75976.94;5058048;28;20118;-85
2021/12/28 07:34:08;;;;;;;11.65;5.40;;;;;;;-144.19;100.00;76000.53;5058588;28;20537;-87
2021/12/28 07:36:35;;;;;;;12.60;5.13;;;;;;;-144.19;100.00;75996.63;5074300;28;20087;-87
2021/12/28 07:39:03;;;;;;;16.33;5.60;;;;;;;-144.19;100.00;75984.81;5057900;28;20422;-85
2021/12/28 07:41:30;;;;;;;13.50;6.40;;;;;;;-144.19;100.00;75988.75;5062828;28;20079;-85
2021/12/28 07:43:57;;;;;;;10.32;6.35;;;;;;;-144.19;100.00;76008.41;5069977;28;20056;-88
2021/12/28 07:46:24;;;;;;;14.60;6.45;;;;;;;-144.19;100.00;76008.41;5078735;28;20066;-86
2021/12/28 07:48:50;;;;;;;15.23;5.80;;;;;;;-144.19;100.00;76004.47;5072901;28;20063;-86
2021/12/28 07:51:17;;;;;;;14.27;6.60;;;;;;;-144.19;100.00;75994.66;5057596;28;20578;-86
2021/12/28 07:53:43;;;;;;;15.63;6.05;;;;;;;-144.19;100.00;75996.63;5057929;28;20059;-88
2021/12/28 07:56:10;;;;;;;13.13;6.00;;;;;;;-144.19;100.00;75980.88;5057927;28;20049;-86
2021/12/28 07:58:36;;;;;;;16.60;6.32;;;;;;;-144.19;100.00;75974.97;5057166;28;20045;-88
2021/12/28 08:01:03;;;;;;;19.13;6.33;;;;;;;-144.19;100.00;75963.16;5057440;28;20055;-85
2021/12/28 08:03:29;;;;;;;21.40;7.03;;;;;;;-144.19;100.00;75959.22;5057060;28;20052;-87
2021/12/28 08:05:56;;;;;;;15.63;6.07;;;;;;;-144.19;100.00;75957.25;5056917;28;20052;-86
2021/12/28 08:08:22;;;;;;;20.20;6.43;;;;;;;-144.19;100.00;75961.19;5056486;28;20049;-88
2021/12/28 08:10:49;;;;;;;15.07;6.63;;;;;;;-144.19;100.00;75955.28;5056448;28;20060;-86
2021/12/28 08:13:16;;;;;;;14.77;6.03;;;;;;;-144.19;100.00;75969.06;5056243;28;20313;-87
2021/12/28 08:15:43;;;;;;;17.63;6.35;;;;;;;-144.19;100.00;75969.06;5056014;28;20529;-86
2021/12/28 08:18:10;;;;;;;18.27;6.80;;;;;;;-144.19;100.00;75965.13;5074669;28;20059;-89
2021/12/28 08:20:38;;;;;;;18.45;7.88;;;;;;;-144.19;100.00;75959.22;5057495;28;20052;-86
2021/12/28 08:23:13;;;;;;;18.20;8.77;;;;;;;-144.19;100.00;75963.16;5085598;28;20055;-85
2021/12/28 08:25:40;;;;;;;14.27;7.35;;;;;;;-144.19;100.00;75961.19;5073639;28;20048;-85
2021/12/28 08:28:06;;;;;;;17.33;7.57;;;;;;;-144.19;100.00;75961.19;5073045;28;20124;-86
2021/12/28 08:30:38;;;;;;;19.48;8.45;;;;;;;-144.19;100.00;75951.34;5056901;28;20064;-89
2021/12/28 08:33:06;;;;;;;18.50;6.72;;;;;;;-144.19;100.00;75945.44;5055109;28;20117;-88
2021/12/28 08:35:33;;;;;;;15.98;7.07;;;;;;;-144.19;100.00;75941.50;5082099;28;20521;-86
2021/12/28 08:37:59;;;;;;;14.57;7.72;;;;;;;-144.19;100.00;75925.75;5087020;28;20424;-85
2021/12/28 08:40:26;;;;;;;18.13;7.73;;;;;;;-144.19;100.00;75906.06;5068454;28;20048;-88
2021/12/28 08:42:53;;;;;;;13.38;7.32;;;;;;;-144.19;100.00;75890.34;5069353;28;20375;-88
2021/12/28 08:45:19;;;;;;;12.95;8.05;;;;;;;-144.19;100.00;75874.59;5068566;28;20044;-84
2021/12/28 08:47:48;;;;;;;19.10;7.82;;;;;;;-144.19;100.00;75860.81;5086498;28;20048;-88
2021/12/28 08:50:16;;;;;;;16.95;7.63;;;;;;;-144.19;100.00;75847.03;5065748;28;20058;-86
2021/12/28 08:52:42;;;;;;;15.20;7.55;;;;;;;-144.19;100.00;75815.56;5082920;28;20055;-85
2021/12/28 08:55:17;;;;;;;14.00;7.10;;;;;;;-144.19;100.00;75817.50;5065564;28;20048;-88
2021/12/28 08:57:44;;;;;;;16.27;7.45;;;;;;;-144.19;100.00;75825.38;5065759;28;20056;-85
2021/12/28 09:00:18;;;;;;;17.05;6.55;;;;;;;-144.19;100.00;75825.38;5083473;28;20047;-89
2021/12/28 09:02:45;;;;;;;14.70;6.25;;;;;;;-144.19;100.00;75823.41;5065146;28;20755;-88
2021/12/28 09:05:11;;;;;;;15.98;7.30;;;;;;;-144.19;100.00;75817.50;5063000;28;20071;-87
2021/12/28 09:07:38;;;;;;;18.52;7.70;;;;;;;-144.19;100.00;75791.94;5072478;28;20051;-87
2021/12/28 09:10:05;;;;;;;16.05;7.47;;;;;;;-144.19;100.00;75784.06;5081069;28;20052;-88
2021/12/28 09:12:32;;;;;;;15.07;7.03;;;;;;;-144.19;100.00;75782.09;5064425;28;20122;-84
2021/12/28 09:14:58;;;;;;;12.67;6.37;;;;;;;-144.19;100.00;75756.50;5061733;28;20717;-86
2021/12/28 09:17:25;;;;;;;18.17;7.60;;;;;;;-144.19;100.00;75764.38;5065035;28;20050;-84
2021/12/28 09:19:51;;;;;;;16.27;7.13;;;;;;;-144.19;100.00;75758.47;5064869;28;20062;-86
2021/12/28 09:22:17;;;;;;;14.60;6.93;;;;;;;-144.19;100.00;75746.66;5062679;28;20286;-87
2021/12/28 09:24:44;;;;;;;12.10;6.60;;;;;;;-144.19;100.00;75732.88;5058062;28;20694;-87
2021/12/28 09:27:16;;;;;;;14.05;6.70;;;;;;;-144.19;100.00;75728.94;5060905;28;20044;-88
2021/12/28 09:29:43;;;;;;;17.77;5.87;;;;;;;-144.19;100.00;75738.78;5061789;28;20063;-88
2021/12/28 09:32:16;;;;;;;15.15;6.22;;;;;;;-144.19;100.00;75732.88;5064605;28;20281;-87
2021/12/28 09:34:43;;;;;;;;;;;;;;;-144.19;100.00;75736.81;5078003;28;20063;-86
2021/12/28 09:37:09;;;;;;;22.30;6.28;;;;;;;-144.19;100.00;75719.13;5065704;28;19920;-89
2021/12/28 09:39:36;;;;;;;11.05;5.75;;;;;;;-144.19;100.00;75709.28;5056964;28;20056;-87
2021/12/28 09:42:03;;;;;;;13.07;6.10;;;;;;;-144.19;100.00;75709.28;5062435;28;20501;-84
2021/12/28 09:44:31;;;;;;;;;;;;;;;-144.19;100.00;75713.22;5063867;28;20052;-86
2021/12/28 09:46:59;;;;;;;11.15;5.45;;;;;;;-144.19;100.00;75697.47;5082217;28;19973;-86
2021/12/28 09:49:27;;;;;;;12.10;6.05;;;;;;;-144.19;100.00;75699.44;5068090;28;20112;-88
2021/12/28 09:51:58;;;;;;;14.98;6.05;;;;;;;-144.19;100.00;75697.47;5071714;28;20083;-85
2021/12/28 09:54:26;;;;;;;14.73;5.95;;;;;;;-144.19;100.00;75681.72;5085767;28;20048;-86
2021/12/28 09:56:55;;;;;;;12.55;5.78;;;;;;;-144.19;100.00;75665.97;5072557;28;20040;-86
2021/12/28 09:59:27;;;;;;;12.13;6.22;;;;;;;-144.19;100.00;75662.03;5063357;28;20122;-85
2021/12/28 10:01:54;;;;;;;16.35;6.75;;;;;;;-144.19;100.00;75650.22;5067842;28;20055;-87
2021/12/28 10:04:21;;;;;;;14.00;6.35;;;;;;;-144.19;100.00;75648.28;5064279;28;20165;-87
2021/12/28 10:06:47;;;;;;;11.73;6.03;;;;;;;-144.19;100.00;75638.44;5060554;28;20128;-88
2021/12/28 10:09:17;;;;;;;13.40;5.93;;;;;;;-144.19;100.00;75630.56;5076079;28;20031;-84
2021/12/28 10:11:50;;;;;;;11.48;6.22;;;;;;;-144.19;100.00;75606.94;5077980;28;20044;-88
2021/12/28 10:14:25;;;;;;;15.40;6.32;;;;;;;-144.19;100.00;75599.06;5060164;28;20052;-87
2021/12/28 10:17:00;;;;;;;11.43;5.85;;;;;;;-144.19;100.00;75595.13;5062759;28;20100;-89
2021/12/28 10:19:41;;;;;;;12.18;6.00;;;;;;;-144.19;100.00;75601.03;5075508;28;20053;-86
2021/12/28 10:22:26;;;;;;;13.43;5.97;;;;;;;-144.19;100.00;75603.00;5064013;28;20051;-88
2021/12/28 10:24:57;;;;;;;8.40;5.72;;;;;;;-144.19;100.00;75599.06;5074263;28;20048;-86
2021/12/28 10:27:25;;;;;;;13.68;5.93;;;;;;;-144.19;100.00;75601.03;5079459;28;20048;-89
2021/12/28 10:29:54;;;;;;;11.45;5.70;;;;;;;-144.19;100.00;75603.00;5074434;28;20044;-89
2021/12/28 10:32:28;;;;;;;10.60;6.50;;;;;;;-144.19;100.00;75599.06;5080140;28;20049;-86
2021/12/28 10:35:00;;;;;;;11.50;5.97;;;;;;;-144.19;100.00;75587.25;5065473;28;20074;-89
2021/12/28 10:37:35;;;;;;;12.43;6.20;;;;;;;-144.19;100.00;75591.19;5068962;28;20057;-86
2021/12/28 10:40:06;;;;;;;14.35;6.20;;;;;;;-144.19;100.00;75583.31;5082551;28;20048;-85
2021/12/28 10:42:51;;;;;;;13.20;6.60;;;;;;;-144.19;100.00;75575.44;5076420;28;20050;-88
2021/12/28 10:45:24;;;;;;;9.75;6.35;;;;;;;-144.19;100.00;75583.31;5059765;28;20061;-88
2021/12/28 10:47:53;;;;;;;15.90;7.60;;;;;;;-144.19;100.00;75571.53;5077131;28;20098;-86
2021/12/28 10:50:36;;;;;;;14.25;7.07;;;;;;;-144.19;100.00;75563.66;5077792;28;20048;-87
2021/12/28 10:53:20;;;;;;;9.68;6.15;;;;;;;-144.19;100.00;75559.72;5080400;28;20563;-88
2021/12/28 10:55:54;;;;;;;12.10;6.75;;;;;;;-144.19;100.00;75553.81;5057400;28;20056;-90
2021/12/28 10:58:45;;;;;;;13.52;7.25;;;;;;;-144.19;100.00;75516.41;5072490;28;20048;-87
2021/12/28 11:01:16;;;;;;;13.85;8.43;;;;;;;-144.19;100.00;75520.34;5046794;28;20172;-87
2021/12/28 11:03:46;;;;;;;17.52;7.78;;;;;;;-144.19;100.00;75500.66;5075155;28;20105;-85
2021/12/28 11:06:21;;;;;;;13.65;6.90;;;;;;;-144.19;100.00;75496.75;5083634;28;20093;-87
2021/12/28 11:08:52;;;;;;;12.45;6.40;;;;;;;-144.19;100.00;75481.00;5066651;28;20046;-90